Time;durP1;ratioP1;P1;durP2;ratioP2;P2;SDS_P1;SDS_P2;PMS_P1;PMS_P2;Temp;Humidity;BMP_temperature;BMP_pressure;BME280_temperature;BME280_humidity;BME280_pressure;Samples;Min_cycle;Max_cycle;Signal;HPM_P1;HPM_P2
2023/10/23 00:02:22;;;;;;;11.53;3.23;;;;;;;;;;5013007;28;20224;-84
2023/10/23 00:04:51;;;;;;;12.13;3.40;;;;;;;;;;5013705;28;20210;-84
2023/10/23 00:07:22;;;;;;;6.03;3.27;;;;;;;;;;5004459;28;20272;-84
2023/10/23 00:09:51;;;;;;;16.20;4.67;;;;;;;;;;4993185;28;20224;-85
2023/10/23 00:12:20;;;;;;;4.37;3.00;;;;;;;;;;4994097;28;20213;-85
2023/10/23 00:14:52;;;;;;;8.23;3.40;;;;;;;;;;4992814;28;20652;-83
2023/10/23 00:17:26;;;;;;;5.43;2.77;;;;;;;;;;4993524;28;20190;-85
2023/10/23 00:19:57;;;;;;;6.77;3.40;;;;;;;;;;4992385;28;20218;-85
2023/10/23 00:22:27;;;;;;;9.37;3.20;;;;;;;;;;4992426;28;20301;-84
2023/10/23 00:24:55;;;;;;;15.83;3.10;;;;;;;;;;4992412;28;20201;-85
2023/10/23 00:27:27;;;;;;;5.63;3.53;;;;;;;;;;4992722;28;20226;-84
2023/10/23 00:29:58;;;;;;;5.93;3.10;;;;;;;;;;4993355;28;20203;-83
2023/10/23 00:32:27;;;;;;;5.27;3.00;;;;;;;;;;4991892;28;20603;-84
2023/10/23 00:34:59;;;;;;;13.83;3.53;;;;;;;;;;4992925;28;20209;-83
2023/10/23 00:37:27;;;;;;;7.00;3.43;;;;;;;;;;5002160;28;20224;-83
2023/10/23 00:39:58;;;;;;;7.33;3.13;;;;;;;;;;5011709;28;20258;-83
2023/10/23 00:42:26;;;;;;;9.43;3.77;;;;;;;;;;5012532;28;20204;-85
2023/10/23 00:44:56;;;;;;;12.20;4.30;;;;;;;;;;5012039;28;20682;-84
2023/10/23 00:47:26;;;;;;;3.87;2.83;;;;;;;;;;5025301;28;20209;-85
2023/10/23 00:49:57;;;;;;;2.83;2.57;;;;;;;;;;5024950;28;20209;-84
2023/10/23 00:52:28;;;;;;;8.37;2.63;;;;;;;;;;5011912;28;20232;-84
2023/10/23 00:55:00;;;;;;;7.07;2.97;;;;;;;;;;5028610;28;20297;-84
2023/10/23 00:57:30;;;;;;;8.60;3.40;;;;;;;;;;5031112;28;20515;-84
2023/10/23 00:59:58;;;;;;;8.60;4.73;;;;;;;;;;5031844;28;20315;-85
2023/10/23 01:02:35;;;;;;;5.23;3.13;;;;;;;;;;5032596;28;20224;-84
2023/10/23 01:05:04;;;;;;;10.50;4.17;;;;;;;;;;5033082;28;20204;-84
2023/10/23 01:07:32;;;;;;;6.83;3.97;;;;;;;;;;5033304;28;20230;-85
2023/10/23 01:10:02;;;;;;;7.33;3.13;;;;;;;;;;5033635;28;20208;-84
2023/10/23 01:12:31;;;;;;;7.50;3.43;;;;;;;;;;5031569;28;20209;-84
2023/10/23 01:15:01;;;;;;;9.17;4.27;;;;;;;;;;5032056;28;20675;-85
2023/10/23 01:17:29;;;;;;;13.40;4.23;;;;;;;;;;5031927;28;20211;-84
2023/10/23 01:19:59;;;;;;;4.87;3.37;;;;;;;;;;5032322;28;20669;-85
2023/10/23 01:22:30;;;;;;;4.67;2.70;;;;;;;;;;5032520;28;20217;-84
2023/10/23 01:24:59;;;;;;;7.43;3.07;;;;;;;;;;5042318;28;20284;-84
2023/10/23 01:27:33;;;;;;;8.23;2.87;;;;;;;;;;5058152;28;20223;-85
2023/10/23 01:30:02;;;;;;;6.53;3.73;;;;;;;;;;5058330;28;20341;-84
2023/10/23 01:32:35;;;;;;;13.43;4.47;;;;;;;;;;5054659;28;20198;-84
2023/10/23 01:35:05;;;;;;;6.50;2.87;;;;;;;;;;5036592;28;20205;-85
2023/10/23 01:37:35;;;;;;;6.57;3.30;;;;;;;;;;5035579;28;20206;-84
2023/10/23 01:40:08;;;;;;;4.87;3.37;;;;;;;;;;5036791;28;20189;-85
2023/10/23 01:42:37;;;;;;;6.47;3.57;;;;;;;;;;5035706;28;20238;-84
2023/10/23 01:45:07;;;;;;;6.63;3.53;;;;;;;;;;5036826;28;20208;-84
2023/10/23 01:47:35;;;;;;;9.27;3.40;;;;;;;;;;5037628;28;20321;-84
2023/10/23 01:50:05;;;;;;;4.77;2.63;;;;;;;;;;5042067;28;20204;-84
2023/10/23 01:52:37;;;;;;;6.90;3.70;;;;;;;;;;5036122;28;20202;-84
2023/10/23 01:55:05;;;;;;;9.30;3.93;;;;;;;;;;5036271;28;20230;-85
2023/10/23 01:57:35;;;;;;;10.87;3.90;;;;;;;;;;5036616;28;20301;-84
2023/10/23 02:00:09;;;;;;;10.88;3.50;;;;;;;;;;5035622;28;20260;-85
2023/10/23 02:02:41;;;;;;;9.63;4.90;;;;;;;;;;5036080;28;20218;-83
2023/10/23 02:05:10;;;;;;;8.80;3.40;;;;;;;;;;5038174;28;20703;-84
2023/10/23 02:07:39;;;;;;;8.75;3.33;;;;;;;;;;5041841;28;20241;-84
2023/10/23 02:10:11;;;;;;;12.52;5.22;;;;;;;;;;5043669;28;20211;-84
2023/10/23 02:12:39;;;;;;;14.27;5.10;;;;;;;;;;5040455;28;20641;-85
2023/10/23 02:15:13;;;;;;;16.63;5.22;;;;;;;;;;5038113;28;20229;-83
2023/10/23 02:17:46;;;;;;;13.43;5.88;;;;;;;;;;5035609;28;20213;-84
2023/10/23 02:20:15;;;;;;;6.05;3.90;;;;;;;;;;5037672;28;20210;-85
2023/10/23 02:22:47;;;;;;;6.03;3.20;;;;;;;;;;5039053;28;20221;-84
2023/10/23 02:25:17;;;;;;;9.18;3.60;;;;;;;;;;5035042;28;20207;-83
2023/10/23 02:27:46;;;;;;;15.38;3.38;;;;;;;;;;5033695;28;20316;-84
2023/10/23 02:30:20;;;;;;;6.47;3.57;;;;;;;;;;5034359;28;20233;-85
2023/10/23 02:32:50;;;;;;;11.82;5.00;;;;;;;;;;5034402;28;20207;-85
2023/10/23 02:35:19;;;;;;;9.70;4.35;;;;;;;;;;5034231;28;20201;-85
2023/10/23 02:40:35;;;;;;;12.43;4.03;;;;;;;;;;5034393;28;20185;-85
2023/10/23 02:43:03;;;;;;;7.65;4.25;;;;;;;;;;5033924;28;20201;-86
2023/10/23 02:45:37;;;;;;;10.90;3.80;;;;;;;;;;5034854;28;20207;-84
2023/10/23 02:48:04;;;;;;;11.40;3.90;;;;;;;;;;5040530;28;20232;-83
2023/10/23 02:50:40;;;;;;;8.85;3.92;;;;;;;;;;5047974;28;20642;-86
2023/10/23 02:53:10;;;;;;;6.80;3.47;;;;;;;;;;5039227;28;20279;-83
2023/10/23 02:55:38;;;;;;;4.95;3.30;;;;;;;;;;5036131;28;20641;-85
2023/10/23 02:58:13;;;;;;;5.72;3.53;;;;;;;;;;5034210;28;20285;-85
2023/10/23 03:00:47;;;;;;;12.87;3.67;;;;;;;;;;5035527;28;20247;-84
2023/10/23 03:03:14;;;;;;;14.30;4.03;;;;;;;;;;5035147;28;20227;-86
2023/10/23 03:05:44;;;;;;;8.17;4.03;;;;;;;;;;5034182;28;20616;-83
2023/10/23 03:08:14;;;;;;;6.20;2.70;;;;;;;;;;5034314;28;20232;-85
2023/10/23 03:10:43;;;;;;;4.47;2.93;;;;;;;;;;5034723;28;20205;-86
2023/10/23 03:13:11;;;;;;;3.83;3.00;;;;;;;;;;5035334;28;20211;-85
2023/10/23 03:15:40;;;;;;;9.17;3.20;;;;;;;;;;5038736;28;20205;-85
2023/10/23 03:18:13;;;;;;;3.77;3.37;;;;;;;;;;5038238;28;20215;-85
2023/10/23 03:20:44;;;;;;;5.63;3.23;;;;;;;;;;5041604;28;20231;-84
2023/10/23 03:23:11;;;;;;;10.47;3.50;;;;;;;;;;5042054;28;20201;-84
2023/10/23 03:25:40;;;;;;;9.50;6.17;;;;;;;;;;5044640;28;20203;-84
2023/10/23 03:28:10;;;;;;;10.73;5.60;;;;;;;;;;5043872;28;20246;-86
2023/10/23 03:30:43;;;;;;;3.10;2.90;;;;;;;;;;5045026;28;20207;-84
2023/10/23 03:33:14;;;;;;;12.83;6.13;;;;;;;;;;5045921;28;20228;-85
2023/10/23 03:35:45;;;;;;;8.83;4.63;;;;;;;;;;5053303;28;20199;-84
2023/10/23 03:38:13;;;;;;;11.80;3.83;;;;;;;;;;5056303;28;20183;-86
2023/10/23 03:40:42;;;;;;;9.33;4.27;;;;;;;;;;5055960;28;20185;-85
2023/10/23 03:43:11;;;;;;;7.13;6.17;;;;;;;;;;5055951;28;20210;-85
2023/10/23 03:45:43;;;;;;;27.23;14.60;;;;;;;;;;5055827;28;20224;-83
2023/10/23 03:48:16;;;;;;;7.03;4.30;;;;;;;;;;5053244;28;20243;-83
2023/10/23 03:50:43;;;;;;;22.10;10.33;;;;;;;;;;5051484;28;20216;-84
2023/10/23 03:53:12;;;;;;;18.43;8.80;;;;;;;;;;5043505;28;20291;-84
2023/10/23 03:55:42;;;;;;;22.23;8.20;;;;;;;;;;5033777;28;20215;-85
2023/10/23 03:58:12;;;;;;;54.63;24.93;;;;;;;;;;5034367;28;20210;-84
2023/10/23 04:00:41;;;;;;;12.87;7.87;;;;;;;;;;5034327;28;20213;-85
2023/10/23 04:03:10;;;;;;;9.33;3.63;;;;;;;;;;5035187;28;20222;-83
2023/10/23 04:05:46;;;;;;;9.50;3.90;;;;;;;;;;5034642;28;20227;-85
2023/10/23 04:08:17;;;;;;;4.63;3.50;;;;;;;;;;5032985;28;20220;-84
2023/10/23 04:10:51;;;;;;;4.77;3.00;;;;;;;;;;5033352;28;20215;-85
2023/10/23 04:13:20;;;;;;;8.00;4.30;;;;;;;;;;5033439;28;20200;-83
2023/10/23 04:15:55;;;;;;;5.83;4.10;;;;;;;;;;5032936;28;20189;-84
2023/10/23 04:18:25;;;;;;;9.27;4.00;;;;;;;;;;5036234;28;20200;-83
2023/10/23 04:21:05;;;;;;;9.10;4.13;;;;;;;;;;5036073;28;20197;-84
2023/10/23 04:23:33;;;;;;;5.60;4.03;;;;;;;;;;5040308;28;20203;-83
2023/10/23 04:26:03;;;;;;;11.63;4.07;;;;;;;;;;5035591;28;20504;-85
2023/10/23 04:28:31;;;;;;;143.20;59.53;;;;;;;;;;5033327;28;20256;-87
2023/10/23 04:31:03;;;;;;;17.20;8.87;;;;;;;;;;5032829;28;20205;-84
2023/10/23 04:33:34;;;;;;;17.23;6.13;;;;;;;;;;5032215;28;20210;-85
2023/10/23 04:36:05;;;;;;;10.30;4.23;;;;;;;;;;5033332;28;20206;-84
2023/10/23 04:38:40;;;;;;;11.47;4.87;;;;;;;;;;5033810;28;20301;-86
2023/10/23 04:41:18;;;;;;;16.07;4.33;;;;;;;;;;5035309;28;20186;-86
2023/10/23 04:43:47;;;;;;;16.87;4.33;;;;;;;;;;5038803;28;20219;-84
2023/10/23 04:46:18;;;;;;;7.33;4.00;;;;;;;;;;5034708;28;20245;-85
2023/10/23 04:48:48;;;;;;;15.77;3.33;;;;;;;;;;5032878;28;20264;-85
2023/10/23 04:51:16;;;;;;;5.87;3.33;;;;;;;;;;5033268;28;20222;-85
2023/10/23 04:53:47;;;;;;;10.27;4.73;;;;;;;;;;5032614;28;20241;-86
2023/10/23 04:56:18;;;;;;;8.27;3.73;;;;;;;;;;5033349;28;20569;-84
2023/10/23 04:58:47;;;;;;;11.90;3.67;;;;;;;;;;5033914;28;20219;-83
2023/10/23 05:01:20;;;;;;;7.87;3.70;;;;;;;;;;5039157;28;20197;-84
2023/10/23 05:03:49;;;;;;;15.43;4.43;;;;;;;;;;5036908;28;20230;-86
2023/10/23 05:06:21;;;;;;;10.55;4.90;;;;;;;;;;5037208;28;20220;-85
2023/10/23 05:08:54;;;;;;;11.27;4.87;;;;;;;;;;5037600;28;20232;-84
2023/10/23 05:11:22;;;;;;;10.23;4.60;;;;;;;;;;5037092;28;20209;-83
2023/10/23 05:13:53;;;;;;;13.32;5.00;;;;;;;;;;5036711;28;20229;-86
2023/10/23 05:16:24;;;;;;;9.05;4.47;;;;;;;;;;5038855;28;20219;-85
2023/10/23 05:18:57;;;;;;;12.00;4.88;;;;;;;;;;5036539;28;20235;-85
2023/10/23 05:21:29;;;;;;;10.95;4.50;;;;;;;;;;5041267;28;20194;-84
2023/10/23 05:24:03;;;;;;;9.60;4.22;;;;;;;;;;5035868;28;20221;-84
2023/10/23 05:26:32;;;;;;;14.43;5.57;;;;;;;;;;5038108;28;20215;-83
2023/10/23 05:29:03;;;;;;;11.80;4.28;;;;;;;;;;5039678;28;20238;-84
2023/10/23 05:31:33;;;;;;;9.50;4.82;;;;;;;;;;5040406;28;20207;-85
2023/10/23 05:34:06;;;;;;;9.40;4.85;;;;;;;;;;5038978;28;20633;-86
2023/10/23 05:36:40;;;;;;;7.22;4.40;;;;;;;;;;5036725;28;20289;-84
2023/10/23 05:39:12;;;;;;;7.63;4.18;;;;;;;;;;5016001;28;20210;-85
2023/10/23 05:41:44;;;;;;;8.45;5.20;;;;;;;;;;5031120;23;21500;-84
2023/10/23 05:44:14;;;;;;;14.77;5.25;;;;;;;;;;4996994;28;20211;-85
2023/10/23 05:46:42;;;;;;;18.15;6.13;;;;;;;;;;4996869;28;20644;-84
2023/10/23 05:49:12;;;;;;;18.73;5.90;;;;;;;;;;4996579;28;20322;-86
2023/10/23 05:51:43;;;;;;;11.27;4.80;;;;;;;;;;4992016;28;20218;-84
2023/10/23 05:54:16;;;;;;;8.18;5.32;;;;;;;;;;4998787;28;20269;-84
2023/10/23 05:56:47;;;;;;;11.43;5.85;;;;;;;;;;4981543;28;20209;-85
2023/10/23 05:59:15;;;;;;;13.55;4.60;;;;;;;;;;4992716;28;20201;-85
2023/10/23 06:01:50;;;;;;;9.13;5.82;;;;;;;;;;4995745;28;20599;-85
2023/10/23 06:04:22;;;;;;;8.27;4.38;;;;;;;;;;4984905;28;20567;-84
2023/10/23 06:06:51;;;;;;;12.73;5.07;;;;;;;;;;4983136;28;20272;-85
2023/10/23 06:09:23;;;;;;;9.00;3.92;;;;;;;;;;4994710;28;20243;-84
2023/10/23 06:11:51;;;;;;;13.25;5.20;;;;;;;;;;4994870;28;20228;-85
2023/10/23 06:14:22;;;;;;;19.00;5.95;;;;;;;;;;4995164;28;20208;-84
2023/10/23 06:16:51;;;;;;;10.20;5.18;;;;;;;;;;4995015;28;20206;-84
2023/10/23 06:19:21;;;;;;;7.43;4.60;;;;;;;;;;4995195;28;20208;-84
2023/10/23 06:21:50;;;;;;;15.25;5.50;;;;;;;;;;4995683;28;20233;-85
2023/10/23 06:24:20;;;;;;;11.52;5.43;;;;;;;;;;4993898;28;20217;-85
2023/10/23 06:26:50;;;;;;;19.15;5.55;;;;;;;;;;4994868;28;20218;-85
2023/10/23 06:29:18;;;;;;;10.55;5.70;;;;;;;;;;4995701;28;20240;-84
2023/10/23 06:31:51;;;;;;;14.25;5.65;;;;;;;;;;4994106;28;20237;-84
2023/10/23 06:34:20;;;;;;;13.32;5.43;;;;;;;;;;4983248;28;20216;-84
2023/10/23 06:36:52;;;;;;;8.55;5.47;;;;;;;;;;4983841;28;20239;-84
2023/10/23 06:39:21;;;;;;;9.40;4.75;;;;;;;;;;4992286;28;20623;-85
2023/10/23 06:41:52;;;;;;;9.48;5.18;;;;;;;;;;4980609;28;20262;-85
2023/10/23 06:44:21;;;;;;;17.15;5.57;;;;;;;;;;4991356;28;20696;-85
2023/10/23 06:46:56;;;;;;;13.77;6.13;;;;;;;;;;5009248;28;20229;-84
2023/10/23 06:49:24;;;;;;;7.10;4.38;;;;;;;;;;5009229;28;20231;-85
2023/10/23 06:52:04;;;;;;;14.65;5.55;;;;;;;;;;5015664;28;20243;-83
2023/10/23 06:54:33;;;;;;;7.53;5.22;;;;;;;;;;5006202;28;20315;-85
2023/10/23 06:57:09;;;;;;;13.25;5.25;;;;;;;;;;4998001;28;20342;-85
2023/10/23 06:59:43;;;;;;;13.70;4.78;;;;;;;;;;4993510;28;20247;-85
2023/10/23 07:02:15;;;;;;;11.02;4.93;;;;;;;;;;4996686;28;20231;-84
2023/10/23 07:04:47;;;;;;;15.50;5.43;;;;;;;;;;4988502;28;20253;-84
2023/10/23 07:07:16;;;;;;;12.63;5.88;;;;;;;;;;4993864;28;20236;-84
2023/10/23 07:09:48;;;;;;;12.77;5.32;;;;;;;;;;4992600;28;20727;-84
2023/10/23 07:12:19;;;;;;;9.50;4.20;;;;;;;;;;4996505;28;20287;-86
2023/10/23 07:14:46;;;;;;;13.77;4.25;;;;;;;;;;4991476;28;20227;-85
2023/10/23 07:17:16;;;;;;;12.95;4.72;;;;;;;;;;4993397;28;20222;-84
2023/10/23 07:19:47;;;;;;;18.60;5.38;;;;;;;;;;5005412;28;20256;-85
2023/10/23 07:22:16;;;;;;;16.08;4.85;;;;;;;;;;5013596;28;20224;-85
2023/10/23 07:24:46;;;;;;;14.02;4.88;;;;;;;;;;5013487;28;20217;-85
2023/10/23 07:27:16;;;;;;;17.88;5.13;;;;;;;;;;5015501;28;20293;-85
2023/10/23 07:29:44;;;;;;;17.83;5.13;;;;;;;;;;5015554;28;20213;-86
2023/10/23 07:32:15;;;;;;;20.20;4.82;;;;;;;;;;4995338;28;20279;-85
2023/10/23 07:34:44;;;;;;;20.60;5.93;;;;;;;;;;4993199;28;20225;-85
2023/10/23 07:37:17;;;;;;;17.35;5.10;;;;;;;;;;4993862;28;20232;-86
2023/10/23 07:39:49;;;;;;;7.55;4.68;;;;;;;;;;4997067;28;20344;-84
2023/10/23 07:42:23;;;;;;;9.10;4.50;;;;;;;;;;4995465;28;20255;-85
2023/10/23 07:44:54;;;;;;;11.80;5.70;;;;;;;;;;4995938;28;20233;-83
2023/10/23 07:47:26;;;;;;;20.38;5.72;;;;;;;;;;4997839;28;20221;-84
2023/10/23 07:49:57;;;;;;;16.13;4.40;;;;;;;;;;4997125;28;20218;-85
2023/10/23 07:52:28;;;;;;;13.90;5.20;;;;;;;;;;4997345;28;20236;-84
2023/10/23 07:54:59;;;;;;;9.77;4.40;;;;;;;;;;4996783;28;20245;-85
2023/10/23 07:57:30;;;;;;;12.13;4.55;;;;;;;;;;4993260;28;20299;-85
2023/10/23 07:59:59;;;;;;;7.47;4.25;;;;;;;;;;4994949;28;20229;-85
2023/10/23 08:02:30;;;;;;;13.88;5.25;;;;;;;;;;4993699;28;20264;-85
2023/10/23 08:05:00;;;;;;;20.00;5.00;;;;;;;;;;4996758;28;20844;-85
2023/10/23 08:07:40;;;;;;;11.07;3.88;;;;;;;;;;4993550;28;20311;-85
2023/10/23 08:10:11;;;;;;;10.50;4.25;;;;;;;;;;4995823;28;20320;-84
2023/10/23 08:12:46;;;;;;;14.82;4.97;;;;;;;;;;4993233;28;20237;-84
2023/10/23 08:15:14;;;;;;;12.07;4.40;;;;;;;;;;4996714;28;20224;-85
2023/10/23 08:17:41;;;;;;;15.90;4.80;;;;;;;;;;4999223;28;20757;-86
2023/10/23 08:20:09;;;;;;;10.20;4.10;;;;;;;;;;4999202;28;20229;-85
2023/10/23 08:22:38;;;;;;;11.05;4.63;;;;;;;;;;4996349;28;20229;-85
2023/10/23 08:25:08;;;;;;;10.70;4.75;;;;;;;;;;4996482;28;20634;-86
2023/10/23 08:27:44;;;;;;;15.13;5.20;;;;;;;;;;4994654;28;20225;-85
2023/10/23 08:30:13;;;;;;;17.42;5.15;;;;;;;;;;4994484;28;20709;-85
2023/10/23 08:32:45;;;;;;;13.70;5.13;;;;;;;;;;4987675;28;20835;-85
2023/10/23 08:35:27;;;;;;;12.68;5.63;;;;;;;;;;4995089;28;20698;-86
2023/10/23 08:37:55;;;;;;;21.33;5.55;;;;;;;;;;4994032;28;20217;-86
2023/10/23 08:40:23;;;;;;;10.05;4.18;;;;;;;;;;4994776;28;20661;-85
2023/10/23 08:42:56;;;;;;;8.48;4.00;;;;;;;;;;4989618;28;20440;-84
2023/10/23 08:45:26;;;;;;;15.88;5.05;;;;;;;;;;4995220;28;20224;-85
2023/10/23 08:47:59;;;;;;;14.05;5.43;;;;;;;;;;4994231;28;20229;-86
2023/10/23 08:50:29;;;;;;;10.18;4.18;;;;;;;;;;4999593;28;20300;-84
2023/10/23 08:52:58;;;;;;;9.73;5.18;;;;;;;;;;4994461;28;20299;-85
2023/10/23 08:55:29;;;;;;;7.63;4.47;;;;;;;;;;4995788;28;20233;-85
2023/10/23 08:58:01;;;;;;;13.48;4.93;;;;;;;;;;4992401;28;20578;-86
2023/10/23 09:00:30;;;;;;;9.88;4.80;;;;;;;;;;4994751;28;20702;-85
2023/10/23 09:02:58;;;;;;;22.90;4.78;;;;;;;;;;4994119;28;20312;-85
2023/10/23 09:05:29;;;;;;;8.25;4.53;;;;;;;;;;4993660;28;20649;-84
2023/10/23 09:08:01;;;;;;;8.10;4.47;;;;;;;;;;4993709;28;20241;-85
2023/10/23 09:10:28;;;;;;;8.95;4.72;;;;;;;;;;4994197;28;20221;-84
2023/10/23 09:12:58;;;;;;;14.80;5.53;;;;;;;;;;4989065;28;20231;-84
2023/10/23 09:15:26;;;;;;;10.57;5.47;;;;;;;;;;4993199;28;20388;-86
2023/10/23 09:18:02;;;;;;;12.35;5.43;;;;;;;;;;4994680;28;20225;-86
2023/10/23 09:20:35;;;;;;;15.23;5.35;;;;;;;;;;4993344;28;20730;-86
2023/10/23 09:23:03;;;;;;;18.92;5.43;;;;;;;;;;4992662;28;20617;-86
2023/10/23 09:25:31;;;;;;;20.42;5.93;;;;;;;;;;4993484;28;20675;-86
2023/10/23 09:28:01;;;;;;;12.10;5.72;;;;;;;;;;4994017;28;20677;-86
2023/10/23 09:30:31;;;;;;;12.00;5.60;;;;;;;;;;4967248;28;20233;-85
2023/10/23 09:33:02;;;;;;;16.08;6.20;;;;;;;;;;4979316;28;20410;-85
2023/10/23 09:35:39;;;;;;;15.50;6.00;;;;;;;;;;4989383;28;20260;-84
2023/10/23 09:38:16;;;;;;;16.90;6.15;;;;;;;;;;4982549;28;20589;-84
2023/10/23 09:40:46;;;;;;;14.00;5.40;;;;;;;;;;4980665;28;20611;-85
2023/10/23 09:43:17;;;;;;;12.30;6.10;;;;;;;;;;4985412;28;20237;-85
2023/10/23 09:45:48;;;;;;;10.18;5.47;;;;;;;;;;4984178;28;20320;-85
2023/10/23 09:48:18;;;;;;;16.50;5.10;;;;;;;;;;4993061;28;20213;-86
2023/10/23 09:50:48;;;;;;;6.95;4.53;;;;;;;;;;4992884;28;20233;-85
2023/10/23 09:53:23;;;;;;;10.07;4.75;;;;;;;;;;4993791;28;20605;-85
2023/10/23 09:55:55;;;;;;;13.38;5.05;;;;;;;;;;4997505;28;20229;-85
2023/10/23 09:58:26;;;;;;;16.23;4.85;;;;;;;;;;5005453;28;20240;-85
2023/10/23 10:00:57;;;;;;;23.92;5.40;;;;;;;;;;4997170;28;20303;-85
2023/10/23 10:03:27;;;;;;;11.43;4.95;;;;;;;;;;4994281;28;20229;-84
2023/10/23 10:05:59;;;;;;;11.80;5.40;;;;;;;;;;4992143;28;20343;-85
2023/10/23 10:08:30;;;;;;;12.40;5.57;;;;;;;;;;4993674;28;20710;-84
2023/10/23 10:11:07;;;;;;;6.97;4.57;;;;;;;;;;4993568;28;20686;-85
2023/10/23 10:13:37;;;;;;;10.90;5.15;;;;;;;;;;4992905;28;20229;-86
2023/10/23 10:16:08;;;;;;;17.83;5.28;;;;;;;;;;4991668;28;20365;-85
2023/10/23 10:18:42;;;;;;;8.85;4.88;;;;;;;;;;4997279;28;20244;-86
2023/10/23 10:21:12;;;;;;;18.40;4.93;;;;;;;;;;4993918;28;20224;-85
2023/10/23 10:23:42;;;;;;;17.85;6.00;;;;;;;;;;4994787;28;20186;-86
2023/10/23 10:26:12;;;;;;;13.57;4.97;;;;;;;;;;5011553;28;20206;-85
2023/10/23 10:28:51;;;;;;;8.48;5.15;;;;;;;;;;5016411;28;20229;-87
2023/10/23 10:31:25;;;;;;;17.88;5.57;;;;;;;;;;5017783;28;20194;-85
2023/10/23 10:33:56;;;;;;;9.27;5.00;;;;;;;;;;5010466;28;20198;-86
2023/10/23 10:36:30;;;;;;;17.27;5.55;;;;;;;;;;4994128;28;20706;-86
2023/10/23 10:38:59;;;;;;;21.95;5.63;;;;;;;;;;4994574;28;20496;-85
2023/10/23 10:41:26;;;;;;;12.13;4.95;;;;;;;;;;4994473;28;20252;-85
2023/10/23 10:43:58;;;;;;;15.13;5.45;;;;;;;;;;4995542;28;20212;-85
2023/10/23 10:46:26;;;;;;;14.38;5.22;;;;;;;;;;4995429;28;20201;-85
2023/10/23 10:48:58;;;;;;;14.48;4.85;;;;;;;;;;5007212;28;20229;-86
2023/10/23 10:51:29;;;;;;;14.40;5.55;;;;;;;;;;5014837;28;20197;-86
2023/10/23 10:54:03;;;;;;;7.28;5.03;;;;;;;;;;4996833;28;20677;-85
2023/10/23 10:56:45;;;;;;;11.57;4.90;;;;;;;;;;4993573;28;20201;-86
2023/10/23 10:59:23;;;;;;;17.30;4.95;;;;;;;;;;4992085;28;20252;-85
2023/10/23 11:01:54;;;;;;;12.23;4.57;;;;;;;;;;4993122;28;20804;-85
2023/10/23 11:04:24;;;;;;;10.82;3.85;;;;;;;;;;4993673;28;20212;-84
2023/10/23 11:07:03;;;;;;;13.00;4.57;;;;;;;;;;4993509;28;20210;-85
2023/10/23 11:09:34;;;;;;;7.53;3.63;;;;;;;;;;4993384;28;20240;-85
2023/10/23 11:12:06;;;;;;;12.27;4.18;;;;;;;;;;4992852;28;20232;-85
2023/10/23 11:14:41;;;;;;;7.20;4.05;;;;;;;;;;4993222;28;20276;-86
2023/10/23 11:17:10;;;;;;;10.48;4.65;;;;;;;;;;4993096;28;20201;-85
2023/10/23 11:19:42;;;;;;;18.15;4.35;;;;;;;;;;4992698;28;20202;-87
2023/10/23 11:22:12;;;;;;;9.93;3.50;;;;;;;;;;4992907;28;20205;-85
2023/10/23 11:24:40;;;;;;;6.55;2.83;;;;;;;;;;4993294;28;20198;-84
2023/10/23 11:27:11;;;;;;;9.43;3.15;;;;;;;;;;4993506;28;20256;-87
2023/10/23 11:29:41;;;;;;;8.55;3.38;;;;;;;;;;4993183;28;20229;-86
2023/10/23 11:32:11;;;;;;;7.90;3.25;;;;;;;;;;4995013;28;20206;-86
2023/10/23 11:34:40;;;;;;;12.48;3.10;;;;;;;;;;4993013;28;20256;-85
2023/10/23 11:37:11;;;;;;;8.25;2.80;;;;;;;;;;4992689;28;20206;-86
2023/10/23 11:39:43;;;;;;;6.25;2.63;;;;;;;;;;4993325;28;20197;-85
2023/10/23 11:42:18;;;;;;;14.90;4.40;;;;;;;;;;4993323;28;20237;-86
2023/10/23 11:44:49;;;;;;;8.13;3.50;;;;;;;;;;4992988;28;20642;-85
2023/10/23 11:47:17;;;;;;;12.00;3.00;;;;;;;;;;4994776;28;20202;-85
2023/10/23 11:49:52;;;;;;;14.27;3.20;;;;;;;;;;4993458;28;20221;-85
2023/10/23 11:52:21;;;;;;;10.45;3.30;;;;;;;;;;4993786;28;20220;-85
2023/10/23 11:54:51;;;;;;;8.93;4.05;;;;;;;;;;4994398;28;20190;-86
2023/10/23 11:57:22;;;;;;;6.75;3.45;;;;;;;;;;4994410;28;20201;-85
2023/10/23 11:59:57;;;;;;;11.93;2.95;;;;;;;;;;4993995;28;20200;-85
2023/10/23 12:02:29;;;;;;;6.60;3.13;;;;;;;;;;4994136;28;20287;-85
2023/10/23 12:04:56;;;;;;;5.40;3.00;;;;;;;;;;4992536;28;20713;-85
2023/10/23 12:07:25;;;;;;;3.67;2.38;;;;;;;;;;4994389;28;20593;-85
2023/10/23 12:09:53;;;;;;;9.63;2.95;;;;;;;;;;4991481;28;20271;-85
2023/10/23 12:12:22;;;;;;;8.10;2.90;;;;;;;;;;4993585;28;20197;-86
2023/10/23 12:14:56;;;;;;;8.23;3.08;;;;;;;;;;4992534;28;20204;-84
2023/10/23 12:17:23;;;;;;;9.15;2.53;;;;;;;;;;4993179;28;20190;-86
2023/10/23 12:19:54;;;;;;;5.85;2.25;;;;;;;;;;4993977;28;20233;-85
2023/10/23 12:22:25;;;;;;;5.68;2.53;;;;;;;;;;4993061;28;20224;-85
2023/10/23 12:24:57;;;;;;;12.43;2.80;;;;;;;;;;4992338;28;20209;-85
2023/10/23 12:27:28;;;;;;;4.05;2.05;;;;;;;;;;4992396;28;20193;-85
2023/10/23 12:29:58;;;;;;;5.82;2.83;;;;;;;;;;4997343;28;20299;-84
2023/10/23 12:32:29;;;;;;;8.05;2.42;;;;;;;;;;5010812;28;20198;-84
2023/10/23 12:35:03;;;;;;;11.15;2.33;;;;;;;;;;5003298;28;20209;-85
2023/10/23 12:37:34;;;;;;;13.80;2.95;;;;;;;;;;4994471;28;20227;-86
2023/10/23 12:40:03;;;;;;;7.18;2.47;;;;;;;;;;4999482;28;20225;-84
2023/10/23 12:42:31;;;;;;;15.63;2.75;;;;;;;;;;4995246;28;20237;-85
2023/10/23 12:45:03;;;;;;;10.82;3.65;;;;;;;;;;4994423;28;20204;-86
2023/10/23 12:47:30;;;;;;;5.13;2.28;;;;;;;;;;4993787;28;20524;-86
2023/10/23 12:50:01;;;;;;;8.18;2.40;;;;;;;;;;4991624;28;20213;-87
2023/10/23 12:52:40;;;;;;;7.82;2.75;;;;;;;;;;4975276;28;20217;-85
2023/10/23 12:55:10;;;;;;;6.70;2.20;;;;;;;;;;4992403;28;20205;-86
2023/10/23 12:57:42;;;;;;;7.65;2.35;;;;;;;;;;4992822;28;20205;-87
2023/10/23 13:00:24;;;;;;;4.63;2.92;;;;;;;;;;4993804;28;20198;-87
2023/10/23 13:02:54;;;;;;;8.60;2.45;;;;;;;;;;4992655;28;20225;-88
2023/10/23 13:05:30;;;;;;;9.00;2.72;;;;;;;;;;4991296;28;20734;-87
2023/10/23 13:08:02;;;;;;;9.27;3.13;;;;;;;;;;4991817;28;20212;-86
2023/10/23 13:10:33;;;;;;;5.03;2.35;;;;;;;;;;4991017;28;20291;-86
2023/10/23 13:13:03;;;;;;;8.57;2.50;;;;;;;;;;4991369;28;20690;-86
2023/10/23 13:15:32;;;;;;;8.85;2.22;;;;;;;;;;4992581;28;20710;-86
2023/10/23 13:18:02;;;;;;;8.00;3.05;;;;;;;;;;4991733;28;20205;-86
2023/10/23 13:20:33;;;;;;;9.95;3.35;;;;;;;;;;4996670;28;20213;-87
2023/10/23 13:23:04;;;;;;;9.52;3.58;;;;;;;;;;5000499;28;20268;-85
2023/10/23 13:25:37;;;;;;;8.27;2.58;;;;;;;;;;5007314;28;20201;-83
2023/10/23 13:28:07;;;;;;;11.20;2.25;;;;;;;;;;4999827;28;20240;-86
2023/10/23 13:30:38;;;;;;;5.57;2.22;;;;;;;;;;4996492;28;20284;-85
2023/10/23 13:33:08;;;;;;;7.88;2.13;;;;;;;;;;4994803;28;20205;-87
2023/10/23 13:35:38;;;;;;;7.57;2.35;;;;;;;;;;4995109;28;20208;-85
2023/10/23 13:38:08;;;;;;;5.72;2.25;;;;;;;;;;4994996;28;20198;-86
2023/10/23 13:40:35;;;;;;;11.23;2.92;;;;;;;;;;4993990;28;20448;-86
2023/10/23 13:43:07;;;;;;;7.70;2.55;;;;;;;;;;4995146;28;20496;-88
2023/10/23 13:48:36;;;;;;;10.30;2.28;;;;;;;;;;4994326;28;20234;-85
2023/10/23 13:51:05;;;;;;;6.63;2.53;;;;;;;;;;4995845;28;20214;-86
2023/10/23 13:53:37;;;;;;;6.15;1.85;;;;;;;;;;4998624;28;20241;-87
2023/10/23 13:56:07;;;;;;;9.18;2.38;;;;;;;;;;5000347;28;20196;-86
2023/10/23 13:58:38;;;;;;;5.45;2.05;;;;;;;;;;4997711;28;20209;-86
2023/10/23 14:01:07;;;;;;;5.15;2.50;;;;;;;;;;4996676;28;20217;-86
2023/10/23 14:03:37;;;;;;;6.95;2.33;;;;;;;;;;4975738;28;20205;-85
2023/10/23 14:06:07;;;;;;;9.70;2.53;;;;;;;;;;4982389;28;20671;-88
2023/10/23 14:08:37;;;;;;;7.85;1.98;;;;;;;;;;4976781;28;20569;-85
2023/10/23 14:11:23;;;;;;;3.83;2.50;;;;;;;;;;4979955;28;20230;-85
2023/10/23 14:13:51;;;;;;;6.53;2.60;;;;;;;;;;4977077;28;20209;-86
2023/10/23 14:16:22;;;;;;;6.30;3.03;;;;;;;;;;4977512;28;20226;-84
2023/10/23 14:18:52;;;;;;;12.32;3.38;;;;;;;;;;4976069;28;20668;-86
2023/10/23 14:21:25;;;;;;;10.15;3.20;;;;;;;;;;4978616;28;20209;-85
2023/10/23 14:23:52;;;;;;;9.10;2.30;;;;;;;;;;4977467;28;20670;-86
2023/10/23 14:26:25;;;;;;;4.65;2.13;;;;;;;;;;4976180;28;20198;-86
2023/10/23 14:28:57;;;;;;;8.65;2.50;;;;;;;;;;4976720;28;20212;-87
2023/10/23 14:31:27;;;;;;;12.20;2.53;;;;;;;;;;4976073;28;20257;-87
2023/10/23 14:33:57;;;;;;;12.35;2.83;;;;;;;;;;4978172;28;20613;-86
2023/10/23 14:36:24;;;;;;;9.73;3.05;;;;;;;;;;4995620;28;20202;-87
2023/10/23 14:38:54;;;;;;;5.07;2.38;;;;;;;;;;4989136;28;20194;-86
2023/10/23 14:41:29;;;;;;;12.80;1.92;;;;;;;;;;4974142;28;20202;-86
2023/10/23 14:44:03;;;;;;;9.27;3.08;;;;;;;;;;4975485;28;20198;-86
2023/10/23 14:46:33;;;;;;;6.13;2.72;;;;;;;;;;4974898;28;20250;-85
2023/10/23 14:49:03;;;;;;;8.20;2.40;;;;;;;;;;4974775;28;20214;-86
2023/10/23 14:51:32;;;;;;;4.50;2.65;;;;;;;;;;4973890;28;20238;-86
2023/10/23 14:54:03;;;;;;;6.70;2.40;;;;;;;;;;4963656;28;20230;-85
2023/10/23 14:56:31;;;;;;;2.75;2.47;;;;;;;;;;4955600;28;20238;-85
2023/10/23 14:59:04;;;;;;;12.80;2.97;;;;;;;;;;4973601;28;20261;-87
2023/10/23 15:01:32;;;;;;;9.32;2.92;;;;;;;;;;4974974;28;20250;-85
2023/10/23 15:04:04;;;;;;;7.88;2.70;;;;;;;;;;4985456;28;20244;-85